Time;durP1;ratioP1;P1;durP2;ratioP2;P2;SDS_P1;SDS_P2;PMS_P1;PMS_P2;Temp;Humidity;BMP_temperature;BMP_pressure;BME280_temperature;BME280_humidity;BME280_pressure;Samples;Min_cycle;Max_cycle;Signal;HPM_P1;HPM_P2
2023/07/02 00:02:19;;;;;;;0.77;0.77;;;;;15.80;95488.00;;;;5033186;28;20193;-55
2023/07/02 00:04:46;;;;;;;0.87;0.87;;;;;15.80;95487.00;;;;5033004;28;20223;-55
2023/07/02 00:07:14;;;;;;;0.50;0.50;;;;;15.80;95494.00;;;;5032896;28;20193;-55
2023/07/02 00:09:42;;;;;;;0.60;0.60;;;;;15.90;95502.00;;;;5032698;28;20216;-55
2023/07/02 00:12:11;;;;;;;1.60;1.50;;;;;15.80;95501.00;;;;5033065;28;20295;-55
2023/07/02 00:14:38;;;;;;;0.70;0.70;;;;;15.80;95489.00;;;;5032762;28;20192;-55
2023/07/02 00:17:06;;;;;;;0.93;0.93;;;;;15.80;95492.00;;;;5032851;28;20550;-56
2023/07/02 00:19:33;;;;;;;1.13;1.07;;;;;15.80;95486.00;;;;5032924;28;20223;-56
2023/07/02 00:22:01;;;;;;;1.10;1.10;;;;;15.70;95483.00;;;;5032669;28;20193;-56
2023/07/02 00:24:29;;;;;;;0.90;0.90;;;;;15.80;95494.00;;;;5032692;28;20212;-56
2023/07/02 00:26:56;;;;;;;0.70;0.70;;;;;15.80;95487.00;;;;5032697;28;20196;-56
2023/07/02 00:29:25;;;;;;;0.80;0.80;;;;;15.80;95490.00;;;;5032597;28;20220;-56
2023/07/02 00:31:53;;;;;;;0.60;0.60;;;;;15.80;95495.00;;;;5032668;28;20185;-56
2023/07/02 00:34:20;;;;;;;0.70;0.70;;;;;15.80;95484.00;;;;5032614;28;20185;-56
2023/07/02 00:36:48;;;;;;;0.67;0.67;;;;;15.60;95483.00;;;;5033038;28;20280;-56
2023/07/02 00:39:17;;;;;;;0.70;0.70;;;;;15.80;95491.00;;;;5032531;28;20683;-56
2023/07/02 00:41:46;;;;;;;0.50;0.50;;;;;15.70;95487.00;;;;5032613;28;20193;-56
2023/07/02 00:44:13;;;;;;;1.10;1.10;;;;;15.70;95486.00;;;;5032460;28;20224;-55
2023/07/02 00:46:42;;;;;;;0.60;0.60;;;;;15.60;95495.00;;;;5036632;28;20200;-56
2023/07/02 00:49:10;;;;;;;0.80;0.80;;;;;15.60;95500.00;;;;5036286;28;20220;-56
2023/07/02 00:51:38;;;;;;;1.13;1.13;;;;;15.60;95497.00;;;;5036405;28;20695;-56
2023/07/02 00:54:05;;;;;;;0.50;0.50;;;;;15.50;95498.00;;;;5036576;28;20240;-56
2023/07/02 00:56:33;;;;;;;0.60;0.60;;;;;15.40;95505.00;;;;5036283;28;20275;-55
2023/07/02 00:59:00;;;;;;;1.03;1.03;;;;;15.40;95498.00;;;;5036016;28;20267;-55
2023/07/02 01:01:29;;;;;;;0.77;0.77;;;;;15.30;95509.00;;;;5036139;28;20276;-55
2023/07/02 01:04:01;;;;;;;0.60;0.60;;;;;15.30;95517.00;;;;5036574;28;20223;-55
2023/07/02 01:06:30;;;;;;;0.77;0.77;;;;;15.40;95512.00;;;;5036389;28;20185;-55
2023/07/02 01:08:59;;;;;;;1.10;1.10;;;;;15.40;95521.00;;;;5035962;28;20217;-55
2023/07/02 01:11:29;;;;;;;3.80;1.37;;;;;15.30;95506.00;;;;5036502;28;20262;-55
2023/07/02 01:14:01;;;;;;;0.57;0.57;;;;;15.30;95514.00;;;;5036533;28;20189;-56
2023/07/02 01:16:32;;;;;;;0.60;0.60;;;;;15.40;95501.00;;;;5036389;28;20181;-56
2023/07/02 01:19:05;;;;;;;0.90;0.90;;;;;15.40;95497.00;;;;5035883;28;20217;-56
2023/07/02 01:21:34;;;;;;;0.70;0.70;;;;;15.40;95491.00;;;;5036511;28;20190;-56
2023/07/02 01:24:02;;;;;;;2.33;2.00;;;;;15.40;95494.00;;;;5035770;28;20676;-57
2023/07/02 01:26:33;;;;;;;0.77;0.77;;;;;15.40;95494.00;;;;5035855;28;20704;-56
2023/07/02 01:29:01;;;;;;;1.30;1.20;;;;;15.40;95484.00;;;;5035770;28;20274;-56
2023/07/02 01:31:29;;;;;;;0.67;0.67;;;;;15.40;95489.00;;;;5035731;28;20201;-56
2023/07/02 01:33:56;;;;;;;0.97;0.97;;;;;15.40;95488.00;;;;5035691;28;20588;-56
2023/07/02 01:36:23;;;;;;;1.40;1.33;;;;;15.30;95489.00;;;;5035569;28;20197;-57
2023/07/02 01:38:52;;;;;;;1.07;1.07;;;;;15.10;95491.00;;;;5035446;28;20204;-56
2023/07/02 01:41:20;;;;;;;0.60;0.60;;;;;15.10;95491.00;;;;5035504;28;20231;-56
2023/07/02 01:43:47;;;;;;;0.77;0.77;;;;;15.20;95498.00;;;;5035335;28;20225;-57
2023/07/02 01:46:15;;;;;;;0.97;0.97;;;;;15.10;95497.00;;;;5035383;28;20188;-58
2023/07/02 01:48:42;;;;;;;1.10;1.10;;;;;14.90;95492.00;;;;5035299;28;20213;-57
2023/07/02 01:51:10;;;;;;;0.60;0.60;;;;;14.90;95499.00;;;;5035337;28;20227;-56
2023/07/02 01:53:37;;;;;;;0.77;0.77;;;;;14.90;95494.00;;;;5035468;28;20192;-56
2023/07/02 01:56:06;;;;;;;0.80;0.80;;;;;14.80;95493.00;;;;5034899;28;20200;-56
2023/07/02 01:58:33;;;;;;;0.57;0.57;;;;;14.80;95495.00;;;;5050150;22;20220;-58
2023/07/02 02:01:01;;;;;;;1.00;1.00;;;;;14.90;95494.00;;;;5055074;28;20196;-57
2023/07/02 02:03:28;;;;;;;0.83;0.83;;;;;15.00;95499.00;;;;5053675;28;20227;-57
2023/07/02 02:05:56;;;;;;;0.50;0.50;;;;;15.10;95493.00;;;;5054960;28;20192;-56
2023/07/02 02:08:23;;;;;;;0.60;0.60;;;;;15.00;95484.00;;;;5055156;28;20223;-57
2023/07/02 02:10:50;;;;;;;0.70;0.70;;;;;15.10;95483.00;;;;5055430;28;20192;-57
2023/07/02 02:13:19;;;;;;;1.27;1.23;;;;;15.10;95494.00;;;;5055086;28;20199;-55
2023/07/02 02:15:46;;;;;;;0.93;0.93;;;;;15.20;95492.00;;;;5054773;28;20196;-56
2023/07/02 02:18:14;;;;;;;0.77;0.77;;;;;15.20;95499.00;;;;5055256;28;20207;-56
2023/07/02 02:20:41;;;;;;;0.60;0.60;;;;;15.20;95497.00;;;;5054826;28;20199;-57
2023/07/02 02:23:09;;;;;;;0.70;0.70;;;;;15.20;95502.00;;;;5055001;28;20608;-56
2023/07/02 02:25:36;;;;;;;0.80;0.80;;;;;15.10;95511.00;;;;5054507;28;20216;-55
2023/07/02 02:28:04;;;;;;;0.90;0.90;;;;;15.10;95506.00;;;;5054568;28;20279;-56
2023/07/02 02:30:33;;;;;;;0.67;0.67;;;;;15.10;95502.00;;;;5053229;28;20695;-56
2023/07/02 02:33:00;;;;;;;0.50;0.50;;;;;15.20;95500.00;;;;5054536;28;20196;-56
2023/07/02 02:35:28;;;;;;;0.90;0.90;;;;;15.30;95511.00;;;;5054466;28;20192;-55
2023/07/02 02:37:55;;;;;;;0.73;0.73;;;;;15.20;95505.00;;;;5054831;28;20223;-56
2023/07/02 02:40:22;;;;;;;0.63;0.63;;;;;15.30;95516.00;;;;5054276;28;20212;-55
2023/07/02 02:42:50;;;;;;;1.20;1.20;;;;;15.20;95514.00;;;;5054535;28;20195;-55
2023/07/02 02:45:17;;;;;;;1.07;0.97;;;;;15.20;95513.00;;;;5054987;28;20224;-55
2023/07/02 02:47:47;;;;;;;0.73;0.73;;;;;15.20;95512.00;;;;5054439;28;20581;-56
2023/07/02 02:50:15;;;;;;;0.63;0.63;;;;;15.20;95521.00;;;;5054421;28;20220;-56
2023/07/02 02:52:43;;;;;;;0.60;0.60;;;;;15.30;95528.00;;;;5054376;28;20215;-55
2023/07/02 02:55:13;;;;;;;0.83;0.83;;;;;15.20;95531.00;;;;5054280;28;20554;-56
2023/07/02 02:57:40;;;;;;;1.00;1.00;;;;;15.10;95537.00;;;;5054237;28;20246;-56
2023/07/02 03:00:09;;;;;;;13.70;1.33;;;;;15.00;95536.00;;;;5053709;28;20227;-56
2023/07/02 03:02:36;;;;;;;0.83;0.83;;;;;15.10;95529.00;;;;5054141;28;20562;-56
2023/07/02 03:05:06;;;;;;;0.60;0.60;;;;;14.90;95531.00;;;;5053755;28;20216;-55
2023/07/02 03:07:35;;;;;;;0.90;0.90;;;;;14.80;95538.00;;;;5053696;28;20283;-55
2023/07/02 03:10:02;;;;;;;19.77;1.20;;;;;14.90;95542.00;;;;5053653;28;20212;-56
2023/07/02 03:12:30;;;;;;;0.73;0.73;;;;;14.80;95542.00;;;;5054264;28;20196;-57
2023/07/02 03:14:57;;;;;;;0.90;0.90;;;;;14.80;95540.00;;;;5053668;28;20245;-55
2023/07/02 03:17:25;;;;;;;0.70;0.70;;;;;14.70;95552.00;;;;5053561;28;20655;-55
2023/07/02 03:19:52;;;;;;;1.10;1.10;;;;;14.70;95543.00;;;;5052211;28;20683;-55
2023/07/02 03:22:21;;;;;;;0.93;0.93;;;;;14.70;95550.00;;;;5053555;28;20196;-57
2023/07/02 03:24:48;;;;;;;0.60;0.60;;;;;14.70;95548.00;;;;5053714;28;20212;-57
2023/07/02 03:27:16;;;;;;;0.70;0.70;;;;;14.70;95548.00;;;;5053444;28;20261;-56
2023/07/02 03:29:43;;;;;;;1.27;1.23;;;;;14.60;95549.00;;;;5053550;28;20223;-58
2023/07/02 03:32:11;;;;;;;0.73;0.73;;;;;14.60;95552.00;;;;5053358;28;20246;-55
2023/07/02 03:34:38;;;;;;;0.80;0.80;;;;;14.60;95559.00;;;;5053593;28;20192;-55
2023/07/02 03:37:07;;;;;;;1.27;1.27;;;;;14.70;95561.00;;;;5053290;28;20242;-55
2023/07/02 03:39:35;;;;;;;1.47;1.37;;;;;14.60;95553.00;;;;5053134;28;20262;-57
2023/07/02 03:42:03;;;;;;;0.70;0.70;;;;;14.50;95555.00;;;;5053128;28;20234;-56
2023/07/02 03:44:30;;;;;;;0.80;0.80;;;;;14.50;95559.00;;;;5053249;28;20299;-55
2023/07/02 03:46:58;;;;;;;1.23;1.20;;;;;14.40;95568.00;;;;5053640;28;20238;-55
2023/07/02 03:49:25;;;;;;;0.80;0.80;;;;;14.40;95562.00;;;;5053001;28;20663;-57
2023/07/02 03:51:53;;;;;;;0.50;0.50;;;;;14.40;95560.00;;;;5053597;28;20196;-55
2023/07/02 03:54:21;;;;;;;0.80;0.80;;;;;14.30;95561.00;;;;5051697;28;20219;-56
2023/07/02 03:56:49;;;;;;;0.60;0.60;;;;;14.30;95574.00;;;;5052998;28;20188;-55
2023/07/02 03:59:17;;;;;;;0.70;0.70;;;;;14.30;95577.00;;;;5052700;28;20695;-56
2023/07/02 04:01:44;;;;;;;0.90;0.90;;;;;14.30;95569.00;;;;5051509;28;20651;-55
2023/07/02 04:04:12;;;;;;;0.60;0.60;;;;;14.30;95583.00;;;;5052799;28;20222;-56
2023/07/02 04:06:39;;;;;;;0.60;0.60;;;;;14.20;95581.00;;;;5051563;28;20283;-56
2023/07/02 04:09:07;;;;;;;0.70;0.70;;;;;14.00;95584.00;;;;5053081;28;20220;-56
2023/07/02 04:11:34;;;;;;;0.70;0.70;;;;;14.20;95580.00;;;;5052845;28;20199;-58
2023/07/02 04:14:03;;;;;;;0.50;0.50;;;;;14.20;95574.00;;;;5053205;28;20196;-55
2023/07/02 04:16:30;;;;;;;1.00;1.00;;;;;14.40;95579.00;;;;5052749;28;20191;-55
2023/07/02 04:18:58;;;;;;;1.17;1.07;;;;;14.50;95582.00;;;;5052308;28;20703;-56
2023/07/02 04:21:25;;;;;;;1.20;1.10;;;;;14.30;95590.00;;;;5052494;28;20279;-55
2023/07/02 04:23:53;;;;;;;0.73;0.73;;;;;14.50;95594.00;;;;5052860;28;20195;-55
2023/07/02 04:26:20;;;;;;;0.83;0.83;;;;;14.50;95592.00;;;;5052865;28;20541;-57
2023/07/02 04:28:48;;;;;;;0.50;0.50;;;;;14.60;95591.00;;;;5052667;28;20215;-55
2023/07/02 04:31:16;;;;;;;0.77;0.77;;;;;14.50;95604.00;;;;5052584;28;20192;-56
2023/07/02 04:33:44;;;;;;;0.60;0.60;;;;;14.50;95603.00;;;;5052852;28;20200;-56
2023/07/02 04:36:12;;;;;;;1.00;1.00;;;;;14.50;95597.00;;;;5052772;28;20643;-57
2023/07/02 04:38:40;;;;;;;0.73;0.73;;;;;14.40;95602.00;;;;5052953;28;20218;-56
2023/07/02 04:41:10;;;;;;;1.07;1.07;;;;;14.50;95605.00;;;;5052566;28;20238;-55
2023/07/02 04:43:37;;;;;;;2.20;1.03;;;;;14.50;95603.00;;;;5052980;28;20216;-56
2023/07/02 04:46:07;;;;;;;0.50;0.50;;;;;14.50;95597.00;;;;5052357;28;20682;-55
2023/07/02 04:48:36;;;;;;;1.13;1.13;;;;;14.50;95600.00;;;;5052399;28;20262;-55
2023/07/02 04:51:03;;;;;;;1.83;1.43;;;;;14.60;95597.00;;;;5052908;28;20200;-56
2023/07/02 04:53:31;;;;;;;1.53;1.47;;;;;14.40;95602.00;;;;5052653;28;20200;-55
2023/07/02 04:55:58;;;;;;;0.70;0.70;;;;;14.50;95593.00;;;;5052426;28;20189;-56
2023/07/02 04:58:25;;;;;;;1.00;1.00;;;;;14.40;95596.00;;;;5052120;28;20192;-56
2023/07/02 05:00:53;;;;;;;1.43;1.33;;;;;14.50;95612.00;;;;5052248;28;20204;-55
2023/07/02 05:03:20;;;;;;;1.10;1.10;;;;;14.50;95607.00;;;;5052491;28;20587;-56
2023/07/02 05:05:49;;;;;;;0.73;0.73;;;;;14.50;95613.00;;;;5050904;28;20219;-55
2023/07/02 05:08:16;;;;;;;1.27;1.27;;;;;14.40;95607.00;;;;5052122;28;20196;-55
2023/07/02 05:10:44;;;;;;;0.67;0.67;;;;;14.40;95606.00;;;;5052192;28;20200;-55
2023/07/02 05:13:11;;;;;;;0.83;0.83;;;;;14.60;95617.00;;;;5052166;28;20284;-55
2023/07/02 05:15:39;;;;;;;1.63;1.47;;;;;14.50;95614.00;;;;5052149;28;20192;-55
2023/07/02 05:18:07;;;;;;;1.40;1.37;;;;;14.60;95607.00;;;;5050904;28;20200;-55
2023/07/02 05:20:34;;;;;;;1.03;1.03;;;;;14.80;95613.00;;;;5052269;28;20580;-56
2023/07/02 05:23:03;;;;;;;0.80;0.80;;;;;14.80;95623.00;;;;5052101;28;20282;-56
2023/07/02 05:25:32;;;;;;;0.70;0.70;;;;;14.80;95623.00;;;;5052074;28;20227;-55
2023/07/02 05:27:59;;;;;;;1.30;1.20;;;;;14.90;95618.00;;;;5052195;28;20203;-56
2023/07/02 05:30:27;;;;;;;1.83;1.70;;;;;14.90;95630.00;;;;5051964;28;20220;-56
2023/07/02 05:32:54;;;;;;;1.63;1.53;;;;;14.90;95631.00;;;;5054529;28;20198;-56
2023/07/02 05:35:22;;;;;;;1.20;1.20;;;;;14.90;95635.00;;;;5056180;28;20203;-55
2023/07/02 05:37:49;;;;;;;1.37;1.37;;;;;15.00;95636.00;;;;5055784;28;20192;-55
2023/07/02 05:40:18;;;;;;;2.03;1.83;;;;;14.90;95632.00;;;;5055439;28;20219;-55
2023/07/02 05:42:46;;;;;;;1.20;1.20;;;;;14.90;95630.00;;;;5054865;28;20295;-55
2023/07/02 05:45:13;;;;;;;1.47;1.37;;;;;14.90;95623.00;;;;5055358;28;20330;-56
2023/07/02 05:47:41;;;;;;;1.20;1.10;;;;;14.90;95634.00;;;;5055332;28;20196;-55
2023/07/02 05:50:10;;;;;;;1.43;1.33;;;;;15.00;95629.00;;;;5055183;28;20212;-55
2023/07/02 05:52:37;;;;;;;1.30;1.30;;;;;14.90;95627.00;;;;5055295;28;20192;-55
2023/07/02 05:55:06;;;;;;;5.03;2.07;;;;;15.10;95629.00;;;;5055207;28;20196;-55
2023/07/02 05:57:34;;;;;;;1.63;1.57;;;;;15.20;95628.00;;;;5055330;28;20203;-55
2023/07/02 06:00:02;;;;;;;1.73;1.60;;;;;15.20;95639.00;;;;5055388;28;20219;-55
2023/07/02 06:02:29;;;;;;;1.83;1.73;;;;;15.20;95641.00;;;;5055108;28;20233;-56
2023/07/02 06:04:57;;;;;;;3.17;2.53;;;;;15.10;95635.00;;;;5055003;28;20220;-56
2023/07/02 06:07:25;;;;;;;2.63;1.47;;;;;15.10;95638.00;;;;5055495;28;20250;-56
2023/07/02 06:09:52;;;;;;;0.80;0.80;;;;;15.20;95641.00;;;;5055015;28;20219;-56
2023/07/02 06:12:21;;;;;;;1.70;1.60;;;;;15.40;95642.00;;;;5054863;28;20196;-56
2023/07/02 06:14:50;;;;;;;2.17;1.97;;;;;15.40;95646.00;;;;5054807;28;20192;-56
2023/07/02 06:17:17;;;;;;;2.00;1.90;;;;;15.40;95640.00;;;;5054804;28;20192;-56
2023/07/02 06:19:46;;;;;;;2.00;1.80;;;;;15.40;95643.00;;;;5054918;28;20239;-56
2023/07/02 06:22:14;;;;;;;2.17;2.07;;;;;15.60;95651.00;;;;5054763;28;20664;-56
2023/07/02 06:24:41;;;;;;;2.03;1.93;;;;;15.60;95646.00;;;;5054649;28;20196;-56
2023/07/02 06:27:09;;;;;;;1.60;1.60;;;;;15.70;95655.00;;;;5055144;28;20250;-57
2023/07/02 06:29:36;;;;;;;2.27;2.07;;;;;15.70;95661.00;;;;5054523;28;20212;-56
2023/07/02 06:32:06;;;;;;;18.33;1.97;;;;;15.70;95657.00;;;;5053299;28;20200;-56
2023/07/02 06:34:33;;;;;;;1.10;1.10;;;;;15.70;95664.00;;;;5054744;28;20195;-56
2023/07/02 06:37:01;;;;;;;1.90;1.77;;;;;15.70;95663.00;;;;5054349;28;20200;-56
2023/07/02 06:39:28;;;;;;;2.40;2.20;;;;;15.70;95686.00;;;;5054653;28;20212;-56
2023/07/02 06:41:55;;;;;;;0.80;0.80;;;;;15.70;95666.00;;;;5054174;28;20188;-56
2023/07/02 06:44:23;;;;;;;1.57;1.50;;;;;15.70;95675.00;;;;5053998;28;20194;-56
2023/07/02 06:46:50;;;;;;;2.97;2.77;;;;;15.90;95686.00;;;;5054146;28;20216;-56
2023/07/02 06:49:19;;;;;;;2.17;2.07;;;;;15.70;95675.00;;;;5054146;28;20212;-56
2023/07/02 06:51:46;;;;;;;2.57;2.37;;;;;15.80;95670.00;;;;5054162;28;20199;-56
2023/07/02 06:54:14;;;;;;;1.83;1.73;;;;;15.80;95676.00;;;;5054174;28;20196;-56
2023/07/02 06:56:41;;;;;;;2.47;2.27;;;;;16.00;95673.00;;;;5054288;28;20235;-56
2023/07/02 06:59:09;;;;;;;2.77;2.57;;;;;16.20;95680.00;;;;5053760;28;20219;-56
2023/07/02 07:01:36;;;;;;;2.27;2.13;;;;;16.10;95683.00;;;;5053899;28;20192;-56
2023/07/02 07:04:04;;;;;;;4.63;2.87;;;;;16.10;95680.00;;;;5052668;28;20203;-56
2023/07/02 07:06:33;;;;;;;1.83;1.73;;;;;16.10;95700.00;;;;5053989;28;20226;-56
2023/07/02 07:09:01;;;;;;;2.53;2.33;;;;;15.90;95690.00;;;;5054081;28;20222;-56
2023/07/02 07:11:28;;;;;;;3.27;3.00;;;;;16.00;95684.00;;;;5053718;28;20249;-56
2023/07/02 07:13:56;;;;;;;2.73;2.53;;;;;15.80;95686.00;;;;5053697;28;20223;-56
2023/07/02 07:16:23;;;;;;;2.03;1.93;;;;;16.10;95689.00;;;;5053641;28;20203;-56
2023/07/02 07:18:50;;;;;;;1.43;1.43;;;;;16.20;95687.00;;;;5053588;28;20693;-56
2023/07/02 07:21:18;;;;;;;3.33;1.87;;;;;16.10;95702.00;;;;5053836;28;20199;-56
2023/07/02 07:23:47;;;;;;;2.33;2.13;;;;;16.10;95693.00;;;;5053395;28;20196;-56
2023/07/02 07:26:14;;;;;;;2.93;2.67;;;;;16.20;95690.00;;;;5053376;28;20243;-56
2023/07/02 07:28:42;;;;;;;2.23;1.87;;;;;16.50;95681.00;;;;5053539;28;20212;-56
2023/07/02 07:31:09;;;;;;;5.37;3.87;;;;;16.60;95699.00;;;;5053313;28;20279;-56
2023/07/02 07:33:37;;;;;;;3.20;2.90;;;;;16.30;95697.00;;;;5053509;28;20593;-56
2023/07/02 07:36:04;;;;;;;2.43;2.20;;;;;16.60;95679.00;;;;5053743;28;20184;-56
2023/07/02 07:38:32;;;;;;;4.37;1.43;;;;;16.90;95702.00;;;;5053087;28;20710;-56
2023/07/02 07:41:00;;;;;;;4.10;2.70;;;;;16.70;95694.00;;;;5051979;28;20242;-56
2023/07/02 07:43:28;;;;;;;5.20;3.73;;;;;16.80;95688.00;;;;5053423;28;20556;-56
2023/07/02 07:45:55;;;;;;;2.20;1.70;;;;;16.70;95707.00;;;;5053043;28;20223;-56
2023/07/02 07:48:23;;;;;;;3.60;3.30;;;;;16.70;95690.00;;;;5053135;28;20242;-56
2023/07/02 07:50:50;;;;;;;7.30;2.50;;;;;16.60;95706.00;;;;5053192;28;20525;-56
2023/07/02 07:53:18;;;;;;;3.67;2.43;;;;;16.70;95690.00;;;;5053389;28;20189;-56
2023/07/02 07:55:45;;;;;;;3.27;2.93;;;;;16.80;95695.00;;;;5052199;28;20196;-56
2023/07/02 07:58:14;;;;;;;2.83;2.17;;;;;16.90;95699.00;;;;5051423;28;20561;-57
2023/07/02 08:00:41;;;;;;;3.03;2.07;;;;;17.00;95700.00;;;;5052763;28;20203;-56
2023/07/02 08:03:10;;;;;;;1.57;1.47;;;;;17.10;95698.00;;;;5052769;28;20192;-56
2023/07/02 08:05:37;;;;;;;2.30;2.10;;;;;17.00;95698.00;;;;5052658;28;20227;-56
2023/07/02 08:08:05;;;;;;;3.80;1.43;;;;;16.80;95700.00;;;;5052803;28;20195;-56
2023/07/02 08:10:33;;;;;;;1.43;1.33;;;;;17.00;95698.00;;;;5052743;28;20220;-56
2023/07/02 08:13:00;;;;;;;2.70;2.47;;;;;17.20;95707.00;;;;5052907;28;20207;-56
2023/07/02 08:15:29;;;;;;;1.90;1.80;;;;;17.20;95710.00;;;;5052685;28;20215;-56
2023/07/02 08:17:58;;;;;;;2.10;1.57;;;;;17.20;95705.00;;;;5051424;28;20196;-56
2023/07/02 08:20:26;;;;;;;2.87;2.60;;;;;17.10;95703.00;;;;5052453;28;20302;-56
2023/07/02 08:22:53;;;;;;;2.23;2.07;;;;;17.50;95694.00;;;;5052545;28;20275;-56
2023/07/02 08:25:22;;;;;;;2.87;2.57;;;;;17.30;95699.00;;;;5052661;28;20655;-56
2023/07/02 08:27:51;;;;;;;2.37;2.17;;;;;17.80;95691.00;;;;5052581;28;20191;-56
2023/07/02 08:30:18;;;;;;;2.93;2.73;;;;;18.00;95695.00;;;;5051148;28;20585;-56
2023/07/02 08:32:47;;;;;;;13.83;3.17;;;;;18.30;95694.00;;;;5053093;28;20200;-56
2023/07/02 08:35:15;;;;;;;4.83;2.10;;;;;18.20;95692.00;;;;5052843;28;20599;-56
2023/07/02 08:37:42;;;;;;;5.47;2.50;;;;;17.80;95697.00;;;;5052807;28;20561;-56
2023/07/02 08:40:17;;;;;;;3.80;2.43;;;;;18.00;95703.00;;;;5053409;28;20220;-56
2023/07/02 08:42:47;;;;;;;3.53;2.50;;;;;18.20;95688.00;;;;5052749;28;20563;-56
2023/07/02 08:45:15;;;;;;;2.20;2.00;;;;;18.60;95687.00;;;;5053212;28;20192;-58
2023/07/02 08:47:43;;;;;;;2.80;2.60;;;;;19.00;95673.00;;;;5052640;28;20303;-56
2023/07/02 08:50:13;;;;;;;3.50;3.13;;;;;19.10;95684.00;;;;5052713;28;20223;-54
2023/07/02 08:52:42;;;;;;;1.87;1.63;;;;;19.00;95690.00;;;;5053469;28;20192;-56
2023/07/02 08:55:10;;;;;;;3.20;2.47;;;;;18.80;95679.00;;;;5052426;28;20269;-56
2023/07/02 08:57:37;;;;;;;2.30;2.10;;;;;19.20;95678.00;;;;5052441;28;20200;-56
2023/07/02 09:00:11;;;;;;;1.13;1.13;;;;;19.50;95679.00;;;;5052253;28;20220;-56
2023/07/02 09:02:38;;;;;;;20.60;4.50;;;;;19.70;95674.00;;;;5052876;28;20286;-56
2023/07/02 09:05:06;;;;;;;1.23;1.23;;;;;19.60;95687.00;;;;5052237;28;20196;-56
2023/07/02 09:07:45;;;;;;;2.40;2.20;;;;;19.00;95695.00;;;;5055910;28;20749;-56
2023/07/02 09:10:13;;;;;;;1.03;1.03;;;;;19.40;95698.00;;;;5056107;28;20219;-56
2023/07/02 09:12:40;;;;;;;2.40;2.20;;;;;18.70;95689.00;;;;5056052;28;20265;-56
2023/07/02 09:15:08;;;;;;;1.60;1.50;;;;;18.80;95693.00;;;;5056320;28;20211;-56
2023/07/02 09:17:37;;;;;;;1.53;1.43;;;;;19.10;95702.00;;;;5056185;28;20196;-56
2023/07/02 09:20:08;;;;;;;2.43;2.23;;;;;19.00;95699.00;;;;5054544;28;20245;-56
2023/07/02 09:22:38;;;;;;;2.10;2.00;;;;;18.80;95700.00;;;;5056048;28;20295;-60
2023/07/02 09:25:06;;;;;;;2.20;1.90;;;;;19.00;95698.00;;;;5056255;28;20192;-57
2023/07/02 09:27:38;;;;;;;6.83;1.93;;;;;19.10;95699.00;;;;5054417;28;20244;-56
2023/07/02 09:30:12;;;;;;;2.23;2.13;;;;;19.30;95707.00;;;;5054376;28;20220;-56
2023/07/02 09:32:40;;;;;;;2.50;2.20;;;;;19.10;95706.00;;;;5055700;28;20208;-56
2023/07/02 09:35:08;;;;;;;3.57;2.93;;;;;18.50;95705.00;;;;5055547;28;20203;-57
2023/07/02 09:37:37;;;;;;;6.43;2.03;;;;;18.60;95699.00;;;;5055638;28;20690;-56
2023/07/02 09:40:08;;;;;;;2.47;2.10;;;;;18.50;95698.00;;;;5055457;28;20212;-57
2023/07/02 09:42:39;;;;;;;1.93;1.83;;;;;18.80;95687.00;;;;5055619;28;20234;-56
2023/07/02 09:45:11;;;;;;;2.40;2.20;;;;;18.70;95707.00;;;;5055945;28;20203;-56
2023/07/02 09:47:45;;;;;;;4.63;2.23;;;;;18.80;95692.00;;;;5055365;28;20205;-58
2023/07/02 09:50:15;;;;;;;2.60;2.40;;;;;18.90;95692.00;;;;5053906;28;20224;-57
2023/07/02 09:52:46;;;;;;;15.17;2.40;;;;;19.30;95730.00;;;;5055555;28;20262;-57
2023/07/02 09:55:14;;;;;;;2.63;2.03;;;;;19.30;95694.00;;;;5055589;28;20176;-57
2023/07/02 09:57:43;;;;;;;2.00;1.90;;;;;19.20;95709.00;;;;5055119;28;20188;-56
2023/07/02 10:00:12;;;;;;;2.27;2.10;;;;;19.00;95691.00;;;;5054993;28;20247;-56
2023/07/02 10:02:40;;;;;;;1.87;1.77;;;;;19.10;95694.00;;;;5055328;28;20203;-56
2023/07/02 10:05:07;;;;;;;3.80;3.40;;;;;18.90;95698.00;;;;5055304;28;20192;-57
2023/07/02 10:07:34;;;;;;;2.90;2.70;;;;;18.80;95720.00;;;;5055438;28;20212;-56
2023/07/02 10:10:04;;;;;;;4.93;2.60;;;;;18.90;95702.00;;;;5054904;28;20274;-56
2023/07/02 10:12:32;;;;;;;1.73;1.63;;;;;18.90;95690.00;;;;5054948;28;20599;-56
2023/07/02 10:15:00;;;;;;;2.00;1.90;;;;;19.30;95698.00;;;;5055204;28;20215;-56
2023/07/02 10:17:30;;;;;;;6.23;3.30;;;;;19.80;95702.00;;;;5054550;28;20274;-57
2023/07/02 10:20:00;;;;;;;3.07;2.67;;;;;20.00;95693.00;;;;5054698;28;20262;-56
2023/07/02 10:22:27;;;;;;;2.33;2.07;;;;;20.20;95693.00;;;;5053370;28;20196;-56
2023/07/02 10:24:59;;;;;;;2.47;2.17;;;;;20.30;95727.00;;;;5054749;28;20192;-56
2023/07/02 10:27:39;;;;;;;1.60;1.50;;;;;19.70;95690.00;;;;5055204;28;20203;-56
2023/07/02 10:30:08;;;;;;;2.17;2.07;;;;;20.00;95699.00;;;;5054627;28;20711;-56
2023/07/02 10:32:37;;;;;;;2.70;2.50;;;;;19.70;95710.00;;;;5054664;28;20197;-56
2023/07/02 10:35:15;;;;;;;2.30;1.90;;;;;20.10;95703.00;;;;5054517;28;20192;-57
2023/07/02 10:37:43;;;;;;;8.23;2.50;;;;;19.90;95689.00;;;;5054821;28;20173;-57
2023/07/02 10:40:11;;;;;;;6.23;2.30;;;;;20.00;95690.00;;;;5054659;28;20541;-57
2023/07/02 10:42:50;;;;;;;2.13;2.03;;;;;20.20;95688.00;;;;5054449;28;20681;-57
2023/07/02 10:45:19;;;;;;;2.63;2.43;;;;;20.40;95682.00;;;;5054597;28;20196;-56
2023/07/02 10:47:47;;;;;;;5.83;2.90;;;;;20.60;95703.00;;;;5054825;28;20230;-57
2023/07/02 10:50:19;;;;;;;1.97;1.87;;;;;20.40;95679.00;;;;5054421;28;20262;-57
2023/07/02 10:52:46;;;;;;;4.70;4.13;;;;;20.40;95710.00;;;;5052901;28;20208;-57
2023/07/02 10:55:18;;;;;;;6.63;3.60;;;;;20.10;95695.00;;;;5054171;28;20538;-56
2023/07/02 10:57:46;;;;;;;2.67;2.13;;;;;20.80;95676.00;;;;5054360;28;20229;-56
2023/07/02 11:00:16;;;;;;;2.90;2.70;;;;;20.60;95679.00;;;;5053912;28;20220;-58
2023/07/02 11:02:43;;;;;;;3.90;2.30;;;;;20.80;95674.00;;;;5054316;28;20192;-57
2023/07/02 11:05:12;;;;;;;3.77;3.47;;;;;21.00;95688.00;;;;5054110;28;20615;-58
2023/07/02 11:07:39;;;;;;;3.70;2.97;;;;;21.40;95693.00;;;;5054247;28;20219;-57
2023/07/02 11:10:08;;;;;;;1.57;1.47;;;;;21.00;95692.00;;;;5054217;28;20219;-57
2023/07/02 11:12:36;;;;;;;3.40;1.97;;;;;20.50;95703.00;;;;5053934;28;20250;-57
2023/07/02 11:15:10;;;;;;;5.10;1.87;;;;;20.90;95707.00;;;;5053855;28;20204;-57
2023/07/02 11:17:40;;;;;;;5.13;2.13;;;;;20.60;95686.00;;;;5053787;28;20185;-56
2023/07/02 11:20:09;;;;;;;3.75;3.45;;;;;20.90;95670.00;;;;5053603;28;20269;-57
2023/07/02 11:22:38;;;;;;;2.93;2.73;;;;;21.30;95671.00;;;;5053950;28;20733;-57
2023/07/02 11:25:15;;;;;;;1.60;1.50;;;;;21.80;95706.00;;;;5053619;28;20203;-56
2023/07/02 11:27:43;;;;;;;2.23;2.13;;;;;21.30;95682.00;;;;5053866;28;20223;-57
2023/07/02 11:30:12;;;;;;;5.63;2.97;;;;;21.30;95677.00;;;;5053337;28;20220;-57
2023/07/02 11:32:52;;;;;;;3.58;2.45;;;;;21.40;95719.00;;;;5052182;28;20210;-57
2023/07/02 11:35:20;;;;;;;1.57;1.47;;;;;20.60;95682.00;;;;5053481;28;20267;-57
2023/07/02 11:37:48;;;;;;;2.30;2.10;;;;;20.80;95694.00;;;;5053924;28;20184;-57
2023/07/02 11:40:18;;;;;;;5.63;2.47;;;;;21.50;95668.00;;;;5051917;28;20220;-57
2023/07/02 11:42:45;;;;;;;3.37;2.93;;;;;21.70;95682.00;;;;5053843;28;20662;-57
2023/07/02 11:45:12;;;;;;;1.73;1.30;;;;;21.40;95684.00;;;;5053585;28;20191;-57
2023/07/02 11:47:40;;;;;;;2.28;2.05;;;;;21.40;95682.00;;;;5053744;28;20270;-57
2023/07/02 11:50:10;;;;;;;6.25;2.55;;;;;21.10;95705.00;;;;5053378;28;20215;-57
2023/07/02 11:52:37;;;;;;;4.30;2.92;;;;;21.20;95690.00;;;;5053049;28;20655;-57
2023/07/02 11:55:05;;;;;;;2.42;2.28;;;;;21.10;95695.00;;;;5053157;28;20194;-57
2023/07/02 11:57:32;;;;;;;17.47;2.73;;;;;21.40;95703.00;;;;5053902;28;20184;-57
2023/07/02 12:00:01;;;;;;;1.48;1.38;;;;;21.40;95695.00;;;;5052999;28;20327;-57
2023/07/02 12:02:28;;;;;;;3.75;3.35;;;;;21.30;95665.00;;;;5053037;28;20239;-57
2023/07/02 12:04:56;;;;;;;2.55;2.30;;;;;21.70;95685.00;;;;5053185;28;20635;-57
2023/07/02 12:07:25;;;;;;;3.20;2.90;;;;;21.30;95685.00;;;;5052845;28;20234;-57
2023/07/02 12:09:52;;;;;;;2.67;2.47;;;;;21.40;95670.00;;;;5053134;28;20266;-57
2023/07/02 12:12:19;;;;;;;2.35;2.22;;;;;21.60;95668.00;;;;5053612;28;20584;-57
2023/07/02 12:14:47;;;;;;;2.28;2.13;;;;;22.10;95660.00;;;;5053634;28;20203;-57
2023/07/02 12:17:14;;;;;;;2.75;1.45;;;;;21.70;95690.00;;;;5053241;28;20560;-56
2023/07/02 12:19:42;;;;;;;6.17;3.10;;;;;21.70;95656.00;;;;5052929;28;20683;-57
2023/07/02 12:22:09;;;;;;;2.67;2.45;;;;;21.90;95658.00;;;;5052765;28;20192;-57
2023/07/02 12:24:38;;;;;;;1.83;1.73;;;;;22.20;95655.00;;;;5052952;28;20294;-57